Time;durP1;ratioP1;P1;durP2;ratioP2;P2;SDS_P1;SDS_P2;PMS_P1;PMS_P2;Temp;Humidity;BMP_temperature;BMP_pressure;BME280_temperature;BME280_humidity;BME280_pressure;Samples;Min_cycle;Max_cycle;Signal;HPM_P1;HPM_P2
2022/05/05 00:01:33;;;;;;;;;;;;;;;;;;5095418;28;20392;-76
2022/05/05 00:03:59;;;;;;;;;;;;;;;;;;5096635;28;19955;-76
2022/05/05 00:06:25;;;;;;;;;;;;;;;;;;5095611;28;19942;-76
2022/05/05 00:08:50;;;;;;;;;;;;;;;;;;5096118;28;19963;-76
2022/05/05 00:16:43;;;;;;;;;;;;;;;;;;5098123;28;20043;-76
2022/05/05 00:19:08;;;;;;;;;;;;;;;;;;5096333;28;20012;-76
2022/05/05 00:21:34;;;;;;;;;;;;;;;;;;5097821;28;19927;-76
2022/05/05 00:23:59;;;;;;;;;;;;;;;;;;5098595;28;19964;-76
2022/05/05 00:26:24;;;;;;;;;;;;;;;;;;5097480;28;19912;-76
2022/05/05 00:28:50;;;;;;;;;;;;;;;;;;5097464;28;19923;-76
2022/05/05 00:31:15;;;;;;;;;;;;;;;;;;5097803;28;19928;-76
2022/05/05 00:33:40;;;;;;;;;;;;;;;;;;5097447;28;20247;-75
2022/05/05 00:36:06;;;;;;;;;;;;;;;;;;5097917;28;20015;-76
2022/05/05 00:38:31;;;;;;;;;;;;;;;;;;5098032;28;20345;-76
2022/05/05 00:40:56;;;;;;;;;;;;;;;;;;5097173;28;19919;-76
2022/05/05 00:43:22;;;;;;;;;;;;;;;;;;5097857;28;19928;-76
2022/05/05 00:45:48;;;;;;;;;;;;;;;;;;5096592;28;20378;-76
2022/05/05 00:48:14;;;;;;;;;;;;;;;;;;5097324;28;19916;-76
2022/05/05 00:50:40;;;;;;;;;;;;;;;;;;5097218;28;19920;-76
2022/05/05 00:53:05;;;;;;;;;;;;;;;;;;5097300;28;19927;-76
2022/05/05 00:55:32;;;;;;;;;;;;;;;;;;5096940;28;20002;-77
2022/05/05 00:57:58;;;;;;;;;;;;;;;;;;5096859;28;19920;-76
2022/05/05 01:00:23;;;;;;;;;;;;;;;;;;5097266;28;19969;-76
2022/05/05 01:02:49;;;;;;;;;;;;;;;;;;5096430;28;19938;-75
2022/05/05 01:05:15;;;;;;;;;;;;;;;;;;5096944;28;20011;-75
2022/05/05 01:07:40;;;;;;;;;;;;;;;;;;5096490;28;19916;-75
2022/05/05 01:10:06;;;;;;;;;;;;;;;;;;5096726;28;19950;-76
2022/05/05 01:12:33;;;;;;;;;;;;;;;;;;5095238;28;19924;-75
2022/05/05 01:14:59;;;;;;;;;;;;;;;;;;5096282;28;19951;-76
2022/05/05 01:17:25;;;;;;;;;;;;;;;;;;5096221;28;19916;-76
2022/05/05 01:19:51;;;;;;;;;;;;;;;;;;5096241;28;19916;-75
2022/05/05 01:22:17;;;;;;;;;;;;;;;;;;5095970;28;20319;-76
2022/05/05 01:30:11;;;;;;;;;;;;;;;;;;5096353;28;19916;-76
2022/05/05 01:32:37;;;;;;;;;;;;;;;;;;5096151;28;19927;-76
2022/05/05 01:35:02;;;;;;;;;;;;;;;;;;5095804;28;19969;-75
2022/05/05 01:37:28;;;;;;;;;;;;;;;;;;5094981;28;19916;-75
2022/05/05 01:39:53;;;;;;;;;;;;;;;;;;5095913;28;19916;-75
2022/05/05 01:42:19;;;;;;;;;;;;;;;;;;5095828;28;19912;-75
2022/05/05 01:44:44;;;;;;;;;;;;;;;;;;5094691;28;19923;-76
2022/05/05 01:47:10;;;;;;;;;;;;;;;;;;5094692;28;19916;-75
2022/05/05 01:49:35;;;;;;;;;;;;;;;;;;5094530;28;19916;-75
2022/05/05 01:52:01;;;;;;;;;;;;;;;;;;5094697;28;19971;-75
2022/05/05 01:54:26;;;;;;;;;;;;;;;;;;5095609;28;19939;-75
2022/05/05 01:56:51;;;;;;;;;;;;;;;;;;5095298;28;19920;-75
2022/05/05 01:59:16;;;;;;;;;;;;;;;;;;5095109;28;20357;-75
2022/05/05 02:01:42;;;;;;;;;;;;;;;;;;5094242;28;19976;-75
2022/05/05 02:04:09;;;;;;;;;;;;;;;;;;5093405;28;22426;-75
2022/05/05 02:06:35;;;;;;;;;;;;;;;;;;5095126;28;19916;-75
2022/05/05 02:09:00;;;;;;;;;;;;;;;;;;5093361;28;20561;-75
2022/05/05 02:11:26;;;;;;;;;;;;;;;;;;5095063;28;19920;-75
2022/05/05 02:13:51;;;;;;;;;;;;;;;;;;5094864;28;20031;-75
2022/05/05 02:16:17;;;;;;;;;;;;;;;;;;5094318;28;19967;-75
2022/05/05 02:18:42;;;;;;;;;;;;;;;;;;5094655;28;19916;-74
2022/05/05 02:21:08;;;;;;;;;;;;;;;;;;5094645;28;19916;-74
2022/05/05 02:23:33;;;;;;;;;;;;;;;;;;5094488;28;19968;-75
2022/05/05 02:25:58;;;;;;;;;;;;;;;;;;5093300;28;19923;-75
2022/05/05 02:28:23;;;;;;;;;;;;;;;;;;5093983;28;19923;-75
2022/05/05 02:30:49;;;;;;;;;;;;;;;;;;5092766;28;20519;-74
2022/05/05 02:33:14;;;;;;;;;;;;;;;;;;5094345;28;19916;-75
2022/05/05 02:35:39;;;;;;;;;;;;;;;;;;5093505;28;19916;-75
2022/05/05 02:40:49;;;;;;;;;;;;;;;;;;5093049;28;19953;-75
2022/05/05 02:43:14;;;;;;;;;;;;;;;;;;5094076;28;20366;-75
2022/05/05 02:45:40;;;;;;;;;;;;;;;;;;5093169;28;19912;-75
2022/05/05 02:48:06;;;;;;;;;;;;;;;;;;5094167;28;19969;-75
2022/05/05 02:50:31;;;;;;;;;;;;;;;;;;5093986;28;20324;-75
2022/05/05 02:52:56;;;;;;;;;;;;;;;;;;5094170;28;19920;-75
2022/05/05 02:55:22;;;;;;;;;;;;;;;;;;5095062;28;19916;-77
2022/05/05 02:57:47;;;;;;;;;;;;;;;;;;5093119;28;19920;-77
2022/05/05 03:00:13;;;;;;;;;;;;;;;;;;5094623;28;19936;-76
2022/05/05 03:02:40;;;;;;;;;;;;;;;;;;5093996;28;19969;-76
2022/05/05 03:05:05;;;;;;;;;;;;;;;;;;5092009;28;19930;-75
2022/05/05 03:07:30;;;;;;;;;;;;;;;;;;5094290;28;19916;-76
2022/05/05 03:09:56;;;;;;;;;;;;;;;;;;5094069;28;19966;-76
2022/05/05 03:12:21;;;;;;;;;;;;;;;;;;5094513;28;19920;-76
2022/05/05 03:14:47;;;;;;;;;;;;;;;;;;5093970;28;19970;-76
2022/05/05 03:17:13;;;;;;;;;;;;;;;;;;5092476;28;19916;-76
2022/05/05 03:19:38;;;;;;;;;;;;;;;;;;5093537;28;19916;-76
2022/05/05 03:22:04;;;;;;;;;;;;;;;;;;5095871;28;19990;-76
2022/05/05 03:24:29;;;;;;;;;;;;;;;;;;5095799;28;19916;-76
2022/05/05 03:26:54;;;;;;;;;;;;;;;;;;5095702;28;19916;-76
2022/05/05 03:29:20;;;;;;;;;;;;;;;;;;5094632;28;19923;-76
2022/05/05 03:31:45;;;;;;;;;;;;;;;;;;5096713;28;20369;-77
2022/05/05 03:34:10;;;;;;;;;;;;;;;;;;5098553;28;19916;-77
2022/05/05 03:36:35;;;;;;;;;;;;;;;;;;5097340;28;19960;-76
2022/05/05 03:39:01;;;;;;;;;;;;;;;;;;5095390;28;19941;-77
2022/05/05 03:41:26;;;;;;;;;;;;;;;;;;5096237;28;20050;-76
2022/05/05 03:43:54;;;;;;;;;;;;;;;;;;5096464;28;19951;-76
2022/05/05 03:46:20;;;;;;;;;;;;;;;;;;5094174;28;19916;-76
2022/05/05 03:48:45;;;;;;;;;;;;;;;;;;5096187;28;19923;-76
2022/05/05 03:51:11;;;;;;;;;;;;;;;;;;5095698;28;19920;-76
2022/05/05 03:53:36;;;;;;;;;;;;;;;;;;5097460;28;19916;-76
2022/05/05 03:56:02;;;;;;;;;;;;;;;;;;5096148;28;20019;-76
2022/05/05 03:58:27;;;;;;;;;;;;;;;;;;5095360;28;20048;-76
2022/05/05 04:00:53;;;;;;;;;;;;;;;;;;5093660;28;19916;-75
2022/05/05 04:03:30;;;;;;;;;;;;;;;;;;5095577;28;19961;-76
2022/05/05 04:05:56;;;;;;;;;;;;;;;;;;5095916;28;20397;-76
2022/05/05 04:08:21;;;;;;;;;;;;;;;;;;5094841;28;19942;-76
2022/05/05 04:10:46;;;;;;;;;;;;;;;;;;5095502;28;20447;-76
2022/05/05 04:13:12;;;;;;;;;;;;;;;;;;5097511;28;19923;-76
2022/05/05 04:15:37;;;;;;;;;;;;;;;;;;5096959;28;19920;-76
2022/05/05 04:18:03;;;;;;;;;;;;;;;;;;5098126;28;19961;-76
2022/05/05 04:20:28;;;;;;;;;;;;;;;;;;5096364;28;20301;-76
2022/05/05 04:22:55;;;;;;;;;;;;;;;;;;5097126;28;19947;-76
2022/05/05 04:25:20;;;;;;;;;;;;;;;;;;5097684;28;19916;-76
2022/05/05 04:27:46;;;;;;;;;;;;;;;;;;5097539;28;19923;-76
2022/05/05 04:30:16;;;;;;;;;;;;;;;;;;5096174;28;19969;-76
2022/05/05 04:32:42;;;;;;;;;;;;;;;;;;5096667;28;19924;-76
2022/05/05 04:35:07;;;;;;;;;;;;;;;;;;5097255;28;19920;-76
2022/05/05 04:37:33;;;;;;;;;;;;;;;;;;5095770;28;19923;-77
2022/05/05 04:39:58;;;;;;;;;;;;;;;;;;5096869;28;19916;-77
2022/05/05 04:42:25;;;;;;;;;;;;;;;;;;5096034;28;19920;-76
2022/05/05 04:44:50;;;;;;;;;;;;;;;;;;5095119;28;19923;-76
2022/05/05 04:47:16;;;;;;;;;;;;;;;;;;5096926;28;19923;-76
2022/05/05 04:49:41;;;;;;;;;;;;;;;;;;5096860;28;20427;-77
2022/05/05 04:52:06;;;;;;;;;;;;;;;;;;5096620;28;19923;-76
2022/05/05 04:54:32;;;;;;;;;;;;;;;;;;5096893;28;20437;-76
2022/05/05 04:56:57;;;;;;;;;;;;;;;;;;5095924;28;19924;-76
2022/05/05 04:59:22;;;;;;;;;;;;;;;;;;5096577;28;20022;-76
2022/05/05 05:01:48;;;;;;;;;;;;;;;;;;5096747;28;19916;-76
2022/05/05 05:04:13;;;;;;;;;;;;;;;;;;5096655;28;20018;-77
2022/05/05 05:06:38;;;;;;;;;;;;;;;;;;5096690;28;19919;-76
2022/05/05 05:09:04;;;;;;;;;;;;;;;;;;5095140;28;19993;-76
2022/05/05 05:11:29;;;;;;;;;;;;;;;;;;5096413;28;19924;-76
2022/05/05 05:13:55;;;;;;;;;;;;;;;;;;5095759;28;19923;-76
2022/05/05 05:16:20;;;;;;;;;;;;;;;;;;5095306;28;19916;-77
2022/05/05 05:18:47;;;;;;;;;;;;;;;;;;5095858;28;20431;-76
2022/05/05 05:21:12;;;;;;;;;;;;;;;;;;5096326;28;20246;-76
2022/05/05 05:23:38;;;;;;;;;;;;;;;;;;5096137;28;19926;-76
2022/05/05 05:26:03;;;;;;;;;;;;;;;;;;5095339;28;19939;-76
2022/05/05 05:28:29;;;;;;;;;;;;;;;;;;5096127;28;19923;-76
2022/05/05 05:30:54;;;;;;;;;;;;;;;;;;5096019;28;19920;-76
2022/05/05 05:33:19;;;;;;;;;;;;;;;;;;5094910;28;19998;-76
2022/05/05 05:35:45;;;;;;;;;;;;;;;;;;5095647;28;20314;-77
2022/05/05 05:38:11;;;;;;;;;;;;;;;;;;5093519;28;19926;-76
2022/05/05 05:40:37;;;;;;;;;;;;;;;;;;5095492;28;20064;-77
2022/05/05 05:43:02;;;;;;;;;;;;;;;;;;5094471;28;20023;-76
2022/05/05 05:45:27;;;;;;;;;;;;;;;;;;5095546;28;20377;-76
2022/05/05 05:47:53;;;;;;;;;;;;;;;;;;5095435;28;20415;-76
2022/05/05 05:50:18;;;;;;;;;;;;;;;;;;5094485;28;19916;-76
2022/05/05 05:52:43;;;;;;;;;;;;;;;;;;5093687;28;20015;-76
2022/05/05 05:55:09;;;;;;;;;;;;;;;;;;5094323;28;19916;-76
2022/05/05 05:57:34;;;;;;;;;;;;;;;;;;5094811;28;20263;-76
2022/05/05 05:59:59;;;;;;;;;;;;;;;;;;5095240;28;20006;-76
2022/05/05 06:05:23;;;;;;;;;;;;;;;;;;5061103;28;20258;-77
2022/05/05 06:07:48;;;;;;;;;;;;;;;;;;5093644;28;19946;-76
2022/05/05 06:10:16;;;;;;;;;;;;;;;;;;5093506;28;19999;-76
2022/05/05 06:12:42;;;;;;;;;;;;;;;;;;5094872;28;19920;-76
2022/05/05 06:15:08;;;;;;;;;;;;;;;;;;5092879;28;19920;-77
2022/05/05 06:17:33;;;;;;;;;;;;;;;;;;5094567;28;19942;-76
2022/05/05 06:19:59;;;;;;;;;;;;;;;;;;5077252;28;19939;-78
2022/05/05 06:22:24;;;;;;;;;;;;;;;;;;5094497;28;20301;-74
2022/05/05 06:24:49;;;;;;;;;;;;;;;;;;5094767;28;19916;-76
2022/05/05 06:27:15;;;;;;;;;;;;;;;;;;5093555;28;19917;-75
2022/05/05 06:29:40;;;;;;;;;;;;;;;;;;5095106;28;19923;-75
2022/05/05 06:32:05;;;;;;;;;;;;;;;;;;5094837;28;19982;-75
2022/05/05 06:34:31;;;;;;;;;;;;;;;;;;5094600;28;20425;-76
2022/05/05 06:36:56;;;;;;;;;;;;;;;;;;5094611;28;19916;-76
2022/05/05 06:39:22;;;;;;;;;;;;;;;;;;5094441;28;19916;-77
2022/05/05 06:41:47;;;;;;;;;;;;;;;;;;5093185;28;19916;-76
2022/05/05 06:44:12;;;;;;;;;;;;;;;;;;5094589;28;20362;-77
2022/05/05 06:46:38;;;;;;;;;;;;;;;;;;5094218;28;19916;-76
2022/05/05 06:49:04;;;;;;;;;;;;;;;;;;5093534;28;19916;-76
2022/05/05 06:51:30;;;;;;;;;;;;;;;;;;5094591;28;19920;-76
2022/05/05 06:53:55;;;;;;;;;;;;;;;;;;5076002;28;20011;-77
2022/05/05 06:56:20;;;;;;;;;;;;;;;;;;5093743;28;19972;-76
2022/05/05 06:58:45;;;;;;;;;;;;;;;;;;5094143;28;20351;-77
2022/05/05 07:06:39;;;;;;;;;;;;;;;;;;5095712;28;19961;-76
2022/05/05 07:11:49;;;;;;;;;;;;;;;;;;5100048;28;19928;-80
2022/05/05 07:14:16;;;;;;;;;;;;;;;;;;5086607;28;19923;-78
2022/05/05 07:16:42;;;;;;;;;;;;;;;;;;5088104;28;19947;-78
2022/05/05 07:19:09;;;;;;;;;;;;;;;;;;5089374;28;19922;-77
2022/05/05 07:21:36;;;;;;;;;;;;;;;;;;5096902;28;19916;-78
2022/05/05 07:24:02;;;;;;;;;;;;;;;;;;5093098;28;19916;-76
2022/05/05 07:26:27;;;;;;;;;;;;;;;;;;5092912;28;20007;-77
2022/05/05 07:28:52;;;;;;;;;;;;;;;;;;5092723;28;19922;-76
2022/05/05 07:31:18;;;;;;;;;;;;;;;;;;5092328;28;20348;-75
2022/05/05 07:33:43;;;;;;;;;;;;;;;;;;5093617;28;19916;-75
2022/05/05 07:36:08;;;;;;;;;;;;;;;;;;5093024;28;20623;-75
2022/05/05 07:38:35;;;;;;;;;;;;;;;;;;5093300;28;19916;-75
2022/05/05 07:41:00;;;;;;;;;;;;;;;;;;5093006;28;19939;-75
2022/05/05 07:43:25;;;;;;;;;;;;;;;;;;5093206;28;20350;-75
2022/05/05 07:45:51;;;;;;;;;;;;;;;;;;5091833;28;19916;-75
2022/05/05 07:48:16;;;;;;;;;;;;;;;;;;5091127;28;19926;-75
2022/05/05 07:50:41;;;;;;;;;;;;;;;;;;5090032;28;19923;-77
2022/05/05 07:53:07;;;;;;;;;;;;;;;;;;5091704;28;19916;-77
2022/05/05 07:55:32;;;;;;;;;;;;;;;;;;5091743;28;19923;-78
2022/05/05 07:57:58;;;;;;;;;;;;;;;;;;5091607;28;20376;-77
2022/05/05 08:00:23;;;;;;;;;;;;;;;;;;5092051;28;19916;-75
2022/05/05 08:02:49;;;;;;;;;;;;;;;;;;5092073;28;19923;-75
2022/05/05 08:05:14;;;;;;;;;;;;;;;;;;5093356;28;19916;-76
2022/05/05 08:07:41;;;;;;;;;;;;;;;;;;5096916;28;19916;-76
2022/05/05 08:10:07;;;;;;;;;;;;;;;;;;5100071;28;19923;-77
2022/05/05 08:12:32;;;;;;;;;;;;;;;;;;5097261;28;19959;-78
2022/05/05 08:14:57;;;;;;;;;;;;;;;;;;5098954;28;19987;-78
2022/05/05 08:17:25;;;;;;;;;;;;;;;;;;5102084;28;19963;-79
2022/05/05 08:19:51;;;;;;;;;;;;;;;;;;5101673;28;19966;-78
2022/05/05 08:22:16;;;;;;;;;;;;;;;;;;5102651;28;19916;-78
2022/05/05 08:30:09;;;;;;;;;;;;;;;;;;5096875;28;20002;-77
2022/05/05 08:32:35;;;;;;;;;;;;;;;;;;5096401;28;20019;-78
2022/05/05 08:35:00;;;;;;;;;;;;;;;;;;5100924;28;20374;-77
2022/05/05 08:37:26;;;;;;;;;;;;;;;;;;5100657;28;19962;-78
2022/05/05 08:39:51;;;;;;;;;;;;;;;;;;5100245;28;19916;-79
2022/05/05 08:42:17;;;;;;;;;;;;;;;;;;5099158;28;19916;-80
2022/05/05 08:44:42;;;;;;;;;;;;;;;;;;5098340;28;19923;-79
2022/05/05 08:47:09;;;;;;;;;;;;;;;;;;5102906;28;19927;-77
2022/05/05 08:49:35;;;;;;;;;;;;;;;;;;5096815;28;19950;-78
2022/05/05 08:52:02;;;;;;;;;;;;;;;;;;5096509;28;20447;-76
2022/05/05 08:54:31;;;;;;;;;;;;;;;;;;5094303;28;20404;-78
2022/05/05 08:56:56;;;;;;;;;;;;;;;;;;5099275;28;19989;-75
2022/05/05 08:59:22;;;;;;;;;;;;;;;;;;5094247;28;20382;-76
2022/05/05 09:01:47;;;;;;;;;;;;;;;;;;5096188;28;19920;-78
2022/05/05 09:04:13;;;;;;;;;;;;;;;;;;5097584;28;19912;-80
2022/05/05 09:06:46;;;;;;;;;;;;;;;;;;5098107;28;20347;-77
2022/05/05 09:09:24;;;;;;;;;;;;;;;;;;5099761;28;20304;-78
2022/05/05 09:12:15;;;;;;;;;;;;;;;;;;5097415;28;19920;-81
2022/05/05 09:14:44;;;;;;;;;;;;;;;;;;5098088;28;19916;-79
2022/05/05 09:17:10;;;;;;;;;;;;;;;;;;5096479;28;19963;-79
2022/05/05 09:19:37;;;;;;;;;;;;;;;;;;5098151;28;19912;-77
2022/05/05 09:22:03;;;;;;;;;;;;;;;;;;5096007;28;19916;-81
2022/05/05 09:24:34;;;;;;;;;;;;;;;;;;5094706;28;19916;-77
2022/05/05 09:27:13;;;;;;;;;;;;;;;;;;5093660;28;20298;-77
2022/05/05 09:29:39;;;;;;;;;;;;;;;;;;5096810;28;19916;-79
2022/05/05 09:32:13;;;;;;;;;;;;;;;;;;5095290;28;19927;-77
2022/05/05 09:34:41;;;;;;;;;;;;;;;;;;5096058;28;19920;-78
2022/05/05 09:37:19;;;;;;;;;;;;;;;;;;5096619;28;19924;-76
2022/05/05 09:39:44;;;;;;;;;;;;;;;;;;5099286;28;19916;-79
2022/05/05 09:42:09;;;;;;;;;;;;;;;;;;5094918;28;19923;-77
2022/05/05 09:44:43;;;;;;;;;;;;;;;;;;5094481;28;19916;-77
2022/05/05 09:47:15;;;;;;;;;;;;;;;;;;5095330;28;20401;-77
2022/05/05 09:49:41;;;;;;;;;;;;;;;;;;5096291;28;19923;-77
2022/05/05 09:57:41;;;;;;;;;;;;;;;;;;5095047;28;19955;-79
2022/05/05 10:00:19;;;;;;;;;;;;;;;;;;5095056;28;19920;-78
2022/05/05 10:05:29;;;;;;;;;;;;;;;;;;5094834;28;19916;-78
2022/05/05 10:07:55;;;;;;;;;;;;;;;;;;5092857;28;19925;-77
2022/05/05 10:10:21;;;;;;;;;;;;;;;;;;5095369;28;20012;-77
2022/05/05 10:12:49;;;;;;;;;;;;;;;;;;5097308;28;19924;-78
2022/05/05 10:15:14;;;;;;;;;;;;;;;;;;5093912;28;19971;-78
2022/05/05 10:17:40;;;;;;;;;;;;;;;;;;5093405;28;19916;-77
2022/05/05 10:20:06;;;;;;;;;;;;;;;;;;5095159;28;20441;-77
2022/05/05 10:23:01;;;;;;;;;;;;;;;;;;5096785;28;19963;-80
2022/05/05 10:25:28;;;;;;;;;;;;;;;;;;5026710;28;20011;-81
2022/05/05 10:27:55;;;;;;;;;;;;;;;;;;5080747;28;19920;-80
2022/05/05 10:30:34;;;;;;;;;;;;;;;;;;5096499;28;19924;-80
2022/05/05 10:32:59;;;;;;;;;;;;;;;;;;5097551;28;19920;-77
2022/05/05 10:35:25;;;;;;;;;;;;;;;;;;5102562;28;20032;-79
2022/05/05 10:37:50;;;;;;;;;;;;;;;;;;5104383;28;19924;-82
2022/05/05 10:40:17;;;;;;;;;;;;;;;;;;5099272;28;19916;-79
2022/05/05 10:42:44;;;;;;;;;;;;;;;;;;5103461;28;19938;-83
2022/05/05 10:45:16;;;;;;;;;;;;;;;;;;5105511;28;19915;-81
2022/05/05 10:47:54;;;;;;;;;;;;;;;;;;5103815;28;19987;-82
2022/05/05 10:50:38;;;;;;;;;;;;;;;;;;5102554;28;20274;-80
2022/05/05 10:53:04;;;;;;;;;;;;;;;;;;5100084;28;19920;-77
2022/05/05 10:55:29;;;;;;;;;;;;;;;;;;5085330;28;19923;-80
2022/05/05 10:57:54;;;;;;;;;;;;;;;;;;5081272;28;19948;-85
2022/05/05 11:00:20;;;;;;;;;;;;;;;;;;5093433;28;19915;-85
2022/05/05 11:02:58;;;;;;;;;;;;;;;;;;5100502;28;19916;-85
2022/05/05 11:05:27;;;;;;;;;;;;;;;;;;5102641;28;20498;-85
2022/05/05 11:07:53;;;;;;;;;;;;;;;;;;5107164;28;20022;-83
2022/05/05 11:10:38;;;;;;;;;;;;;;;;;;5082562;28;19920;-85
2022/05/05 11:13:03;;;;;;;;;;;;;;;;;;5076081;28;19928;-88
2022/05/05 11:23:56;;;;;;;;;;;;;;;;;;5083944;28;19917;-84
2022/05/05 11:26:22;;;;;;;;;;;;;;;;;;5082139;28;19939;-82
2022/05/05 11:28:48;;;;;;;;;;;;;;;;;;5096675;28;19920;-81
2022/05/05 11:31:19;;;;;;;;;;;;;;;;;;5105562;28;19917;-81
2022/05/05 11:34:03;;;;;;;;;;;;;;;;;;5100491;28;19960;-81
2022/05/05 11:36:33;;;;;;;;;;;;;;;;;;5098858;28;19916;-79
2022/05/05 11:38:59;;;;;;;;;;;;;;;;;;5100589;28;19927;-78
2022/05/05 11:41:26;;;;;;;;;;;;;;;;;;5103407;28;20373;-79
2022/05/05 11:46:36;;;;;;;;;;;;;;;;;;5107724;28;19916;-78
2022/05/05 11:49:02;;;;;;;;;;;;;;;;;;5106001;28;19948;-78
2022/05/05 11:51:33;;;;;;;;;;;;;;;;;;5107563;28;20285;-79
2022/05/05 11:53:59;;;;;;;;;;;;;;;;;;5105813;28;19924;-78
2022/05/05 11:56:25;;;;;;;;;;;;;;;;;;5104350;28;19920;-79
2022/05/05 12:01:41;;;;;;;;;;;;;;;;;;5104557;28;19919;-78
2022/05/05 12:04:12;;;;;;;;;;;;;;;;;;5106472;28;19924;-79
2022/05/05 12:06:38;;;;;;;;;;;;;;;;;;5108411;28;19926;-79
2022/05/05 12:09:05;;;;;;;;;;;;;;;;;;5098136;28;19900;-79
2022/05/05 12:11:30;;;;;;;;;;;;;;;;;;5085743;28;20098;-79
2022/05/05 12:14:00;;;;;;;;;;;;;;;;;;5081495;28;20389;-78
2022/05/05 12:16:32;;;;;;;;;;;;;;;;;;5085229;28;19917;-78
2022/05/05 12:18:58;;;;;;;;;;;;;;;;;;5084514;28;20385;-78
2022/05/05 12:21:24;;;;;;;;;;;;;;;;;;5105001;28;19938;-78
2022/05/05 12:23:57;;;;;;;;;;;;;;;;;;5104573;28;19938;-78
2022/05/05 12:26:27;;;;;;;;;;;;;;;;;;5105354;28;19916;-78
2022/05/05 12:28:52;;;;;;;;;;;;;;;;;;5102294;28;19916;-78
2022/05/05 12:31:21;;;;;;;;;;;;;;;;;;5108193;28;19924;-78
2022/05/05 12:33:47;;;;;;;;;;;;;;;;;;5125543;28;19940;-78
2022/05/05 12:36:13;;;;;;;;;;;;;;;;;;5125066;28;19916;-78
2022/05/05 12:38:39;;;;;;;;;;;;;;;;;;5125824;28;19926;-78
2022/05/05 12:41:07;;;;;;;;;;;;;;;;;;5114671;28;19915;-78
2022/05/05 12:43:33;;;;;;;;;;;;;;;;;;5124083;28;20330;-79
2022/05/05 12:46:02;;;;;;;;;;;;;;;;;;5102286;28;19968;-78
2022/05/05 12:48:28;;;;;;;;;;;;;;;;;;5096843;28;19920;-77
2022/05/05 12:50:53;;;;;;;;;;;;;;;;;;5096253;28;19916;-77
2022/05/05 13:01:43;;;;;;;;;;;;;;;;;;5096005;28;20335;-77
2022/05/05 13:04:12;;;;;;;;;;;;;;;;;;5094716;28;19924;-77
2022/05/05 13:06:38;;;;;;;;;;;;;;;;;;5094770;28;19990;-77
2022/05/05 13:09:08;;;;;;;;;;;;;;;;;;5103381;28;19916;-78
2022/05/05 13:11:37;;;;;;;;;;;;;;;;;;5114912;28;19974;-77
2022/05/05 13:14:03;;;;;;;;;;;;;;;;;;5116142;28;19923;-78
2022/05/05 13:16:32;;;;;;;;;;;;;;;;;;5116123;28;19916;-77
2022/05/05 13:18:59;;;;;;;;;;;;;;;;;;5106663;28;19921;-78
2022/05/05 13:21:26;;;;;;;;;;;;;;;;;;5086000;28;19994;-77
2022/05/05 13:23:52;;;;;;;;;;;;;;;;;;5071710;28;19941;-77
2022/05/05 13:26:18;;;;;;;;;;;;;;;;;;5095711;28;20003;-77
2022/05/05 13:28:43;;;;;;;;;;;;;;;;;;5095357;28;20350;-77
2022/05/05 13:31:08;;;;;;;;;;;;;;;;;;5096377;28;19916;-79
2022/05/05 13:33:34;;;;;;;;;;;;;;;;;;5098128;28;19916;-84
2022/05/05 13:35:59;;;;;;;;;;;;;;;;;;5118500;28;19915;-83
2022/05/05 13:38:26;;;;;;;;;;;;;;;;;;5119591;28;19946;-83
2022/05/05 13:40:51;;;;;;;;;;;;;;;;;;5101525;28;19916;-82
2022/05/05 13:43:17;;;;;;;;;;;;;;;;;;5099480;28;19969;-82
2022/05/05 13:45:42;;;;;;;;;;;;;;;;;;5097623;28;19923;-81
2022/05/05 13:48:08;;;;;;;;;;;;;;;;;;5099504;28;19920;-81
2022/05/05 13:50:33;;;;;;;;;;;;;;;;;;5099842;28;20326;-79
2022/05/05 13:52:59;;;;;;;;;;;;;;;;;;5096999;28;19934;-77
2022/05/05 13:55:25;;;;;;;;;;;;;;;;;;5094141;28;19916;-78
2022/05/05 13:57:51;;;;;;;;;;;;;;;;;;5095714;28;19958;-78
2022/05/05 14:00:24;;;;;;;;;;;;;;;;;;5096040;28;20311;-78
2022/05/05 14:02:55;;;;;;;;;;;;;;;;;;5095833;28;19927;-78
2022/05/05 14:05:21;;;;;;;;;;;;;;;;;;5095851;28;19916;-78
2022/05/05 14:13:14;;;;;;;;;;;;;;;;;;5096902;28;19970;-79
2022/05/05 14:15:41;;;;;;;;;;;;;;;;;;5096743;28;19916;-78
2022/05/05 14:18:06;;;;;;;;;;;;;;;;;;5096755;28;19974;-79
2022/05/05 14:20:32;;;;;;;;;;;;;;;;;;5097609;28;19916;-78
2022/05/05 14:22:57;;;;;;;;;;;;;;;;;;5095926;28;20455;-78
2022/05/05 14:25:23;;;;;;;;;;;;;;;;;;5094215;28;19924;-78
2022/05/05 14:27:49;;;;;;;;;;;;;;;;;;5093416;28;19923;-78
2022/05/05 14:30:14;;;;;;;;;;;;;;;;;;5094363;28;19916;-79
2022/05/05 14:32:40;;;;;;;;;;;;;;;;;;5093941;28;19960;-78
2022/05/05 14:35:05;;;;;;;;;;;;;;;;;;5094426;28;19967;-78
2022/05/05 14:37:31;;;;;;;;;;;;;;;;;;5094932;28;19916;-78
2022/05/05 14:39:56;;;;;;;;;;;;;;;;;;5094725;28;19916;-78
2022/05/05 14:42:22;;;;;;;;;;;;;;;;;;5096612;28;19980;-79
2022/05/05 14:44:47;;;;;;;;;;;;;;;;;;5098136;28;19920;-80
2022/05/05 14:47:12;;;;;;;;;;;;;;;;;;5097274;28;20016;-80
2022/05/05 14:49:39;;;;;;;;;;;;;;;;;;5093762;28;19916;-76
2022/05/05 14:52:05;;;;;;;;;;;;;;;;;;5095209;28;19927;-78
2022/05/05 14:54:30;;;;;;;;;;;;;;;;;;5093339;28;20262;-78
2022/05/05 14:56:56;;;;;;;;;;;;;;;;;;5095303;28;19927;-78
2022/05/05 14:59:22;;;;;;;;;;;;;;;;;;5093744;28;19930;-78
2022/05/05 15:01:48;;;;;;;;;;;;;;;;;;5094513;28;20488;-78
2022/05/05 15:04:13;;;;;;;;;;;;;;;;;;5095261;28;19916;-78
2022/05/05 15:06:38;;;;;;;;;;;;;;;;;;5093659;28;20246;-78
2022/05/05 15:09:05;;;;;;;;;;;;;;;;;;5094002;28;19920;-78
2022/05/05 15:11:30;;;;;;;;;;;;;;;;;;5093311;28;20395;-78
2022/05/05 15:13:56;;;;;;;;;;;;;;;;;;5093342;28;19916;-78
2022/05/05 15:16:22;;;;;;;;;;;;;;;;;;5093833;28;19962;-78
2022/05/05 15:18:48;;;;;;;;;;;;;;;;;;5094130;28;19920;-78
2022/05/05 15:21:13;;;;;;;;;;;;;;;;;;5094637;28;19970;-78
2022/05/05 15:23:41;;;;;;;;;;;;;;;;;;5094221;28;19920;-78
2022/05/05 15:26:07;;;;;;;;;;;;;;;;;;5081713;28;19924;-78
2022/05/05 15:28:32;;;;;;;;;;;;;;;;;;5084695;28;19969;-78
2022/05/05 15:31:01;;;;;;;;;;;;;;;;;;5082758;28;19916;-78
2022/05/05 15:33:28;;;;;;;;;;;;;;;;;;5081703;28;19920;-78
2022/05/05 15:35:53;;;;;;;;;;;;;;;;;;5085588;28;19923;-78
2022/05/05 15:38:19;;;;;;;;;;;;;;;;;;5093233;28;19916;-78
2022/05/05 15:40:44;;;;;;;;;;;;;;;;;;5094518;28;19920;-78
2022/05/05 15:43:10;;;;;;;;;;;;;;;;;;5094153;28;19967;-78
2022/05/05 15:45:35;;;;;;;;;;;;;;;;;;5085103;28;19956;-78
2022/05/05 15:48:03;;;;;;;;;;;;;;;;;;5073761;28;19970;-78
2022/05/05 15:50:29;;;;;;;;;;;;;;;;;;5075560;28;20344;-78
2022/05/05 15:52:54;;;;;;;;;;;;;;;;;;5092538;28;19920;-78
2022/05/05 15:55:19;;;;;;;;;;;;;;;;;;5092079;28;19924;-78
2022/05/05 15:57:46;;;;;;;;;;;;;;;;;;5093467;28;19931;-78
2022/05/05 16:00:15;;;;;;;;;;;;;;;;;;5091559;28;20018;-78
2022/05/05 16:02:43;;;;;;;;;;;;;;;;;;5093863;28;19916;-78
2022/05/05 16:05:09;;;;;;;;;;;;;;;;;;5092598;28;19973;-78
2022/05/05 16:07:35;;;;;;;;;;;;;;;;;;5093796;28;20297;-78
2022/05/05 16:10:00;;;;;;;;;;;;;;;;;;5093035;28;19916;-78
2022/05/05 16:12:25;;;;;;;;;;;;;;;;;;5092285;28;19938;-78
2022/05/05 16:14:51;;;;;;;;;;;;;;;;;;5092880;28;19978;-76
2022/05/05 16:17:16;;;;;;;;;;;;;;;;;;5093198;28;19923;-77
2022/05/05 16:19:41;;;;;;;;;;;;;;;;;;5093250;28;19923;-76
2022/05/05 16:22:07;;;;;;;;;;;;;;;;;;5093235;28;20419;-77
2022/05/05 16:30:14;;;;;;;;;;;;;;;;;;5098695;28;19916;-81
2022/05/05 16:32:44;;;;;;;;;;;;;;;;;;5101084;28;19924;-81
2022/05/05 16:35:11;;;;;;;;;;;;;;;;;;5103643;28;19916;-81
2022/05/05 16:37:43;;;;;;;;;;;;;;;;;;5103632;28;19916;-80
2022/05/05 16:40:12;;;;;;;;;;;;;;;;;;5104097;28;19955;-81
2022/05/05 16:42:38;;;;;;;;;;;;;;;;;;5103940;28;19938;-81
2022/05/05 16:45:04;;;;;;;;;;;;;;;;;;5101053;28;19919;-80
2022/05/05 16:47:30;;;;;;;;;;;;;;;;;;5100662;28;19916;-81
2022/05/05 16:49:56;;;;;;;;;;;;;;;;;;5101822;28;19923;-80
2022/05/05 16:52:21;;;;;;;;;;;;;;;;;;5102325;28;19920;-83
2022/05/05 16:54:47;;;;;;;;;;;;;;;;;;5104043;28;19924;-82
2022/05/05 16:57:12;;;;;;;;;;;;;;;;;;5102369;28;19920;-83
2022/05/05 16:59:37;;;;;;;;;;;;;;;;;;5113423;28;19916;-84
2022/05/05 17:02:05;;;;;;;;;;;;;;;;;;5125650;28;20025;-84
2022/05/05 17:04:31;;;;;;;;;;;;;;;;;;5124371;28;20170;-83
2022/05/05 17:06:57;;;;;;;;;;;;;;;;;;5115130;28;19919;-83
2022/05/05 17:09:22;;;;;;;;;;;;;;;;;;5103738;28;20378;-82
2022/05/05 17:11:47;;;;;;;;;;;;;;;;;;5101340;28;19924;-83
2022/05/05 17:14:13;;;;;;;;;;;;;;;;;;5102931;28;19916;-82
2022/05/05 17:16:39;;;;;;;;;;;;;;;;;;5097891;28;19920;-83
2022/05/05 17:19:04;;;;;;;;;;;;;;;;;;5096445;28;19937;-84
2022/05/05 17:21:31;;;;;;;;;;;;;;;;;;5090251;28;19948;-81
2022/05/05 17:23:56;;;;;;;;;;;;;;;;;;5090688;28;20069;-79
2022/05/05 17:26:21;;;;;;;;;;;;;;;;;;5088996;28;20390;-79
2022/05/05 17:28:47;;;;;;;;;;;;;;;;;;5085733;28;19916;-81
2022/05/05 17:31:12;;;;;;;;;;;;;;;;;;5078557;28;19916;-81
2022/05/05 17:33:38;;;;;;;;;;;;;;;;;;5082404;28;19920;-82
2022/05/05 17:36:03;;;;;;;;;;;;;;;;;;5083914;28;19947;-81
2022/05/05 17:38:29;;;;;;;;;;;;;;;;;;5090468;28;19961;-80
2022/05/05 17:40:54;;;;;;;;;;;;;;;;;;5079533;28;19921;-81
2022/05/05 17:43:19;;;;;;;;;;;;;;;;;;5090109;28;19920;-82
2022/05/05 17:51:12;;;;;;;;;;;;;;;;;;5079512;28;19922;-77
2022/05/05 17:53:38;;;;;;;;;;;;;;;;;;5085644;28;19921;-77
2022/05/05 17:56:03;;;;;;;;;;;;;;;;;;5086993;28;19970;-76
2022/05/05 17:58:29;;;;;;;;;;;;;;;;;;5084486;28;20324;-78